Accueil
METAR-TAF:

METAR-TAF

Aéroports :

Strasbourg, France

Aéroport de Strasbourg-Entzheim

latitude: 48-33N, longitude: 007-38E, altitude: 153 m

Observation

Le bulletin a été fait il y a 28 minutes, à 01:30 UTC
Vent 3 kt de ouest/nord-ouest
Température 18°C
Humidité 73%
Pression 1019 hPa
Visibilité 10 km ou plus
pas de nuages en-dessous de 1500 mètres et pas de cumulonimbus.

METAR: LFST 240130Z AUTO 30003KT CAVOK 18/13 Q1019 NOSIG

Heure: 03:58 (01:58 UTC)

Prévision

Le bulletin a été fait il y a 8 heures et 58 minutes, à 17:00 UTC
Prévision valable du 23 à 18 UTC au 24 à 18 UTC
Vent 15 kt de ouest
Visibilité 10 km ou plus
pas de nuages en-dessous de 1500 mètres et pas de cumulonimbus.
Evoluant progressivement
du 23 à 18 UTC au 23 à 21 UTC
Vent 5 kt de ouest

TAF: LFST 231700Z 2318/2418 27015KT CAVOK BECMG 2318/2321 28005KT

Observations et prévisions météorologiques de plus de 4000 aéroports (messages METAR et TAF).

Les stations disponibles sont représentées par des disques jaunes et rouges sur la carte.

Passer la souris dessus pour voir le nom de la station.

Cliquer dessus pour voir les observations et prévisions météorologiques.

Pour changer de carte: cliquez sur les boutons verts avec une croix noire pour zoomer, sur le bouton vert avec un tiret pour effectuer un zoom arrière, ou sur les flèches vertes pour les cartes adjacentes.


METAR-TAF: